sensor_id;sensor_type;location;lat;lon;timestamp;pressure;altitude;pressure_sealevel;temperature;humidity
56241;BME280;42155;53.096;23.226;2022-07-10T00:01:45;99691.06;;;14.56;71.79
56241;BME280;42155;53.096;23.226;2022-07-10T00:03:45;99747.41;;;14.89;72.16
56241;BME280;42155;53.096;23.226;2022-07-10T00:05:45;99751.50;;;14.83;71.99
56241;BME280;42155;53.096;23.226;2022-07-10T00:07:47;99745.97;;;14.76;72.32
56241;BME280;42155;53.096;23.226;2022-07-10T00:09:47;99747.06;;;14.66;72.30
56241;BME280;42155;53.096;23.226;2022-07-10T00:11:48;99746.16;;;14.57;72.81
56241;BME280;42155;53.096;23.226;2022-07-10T00:13:48;99743.09;;;14.52;72.45
56241;BME280;42155;53.096;23.226;2022-07-10T00:15:48;99735.53;;;14.47;72.83
56241;BME280;42155;53.096;23.226;2022-07-10T00:17:49;99736.00;;;14.43;72.47
56241;BME280;42155;53.096;23.226;2022-07-10T00:19:49;99741.09;;;14.36;72.34
56241;BME280;42155;53.096;23.226;2022-07-10T00:21:50;99736.66;;;14.27;72.63
56241;BME280;42155;53.096;23.226;2022-07-10T00:23:50;99728.72;;;14.17;72.76
56241;BME280;42155;53.096;23.226;2022-07-10T00:25:51;99732.19;;;14.10;72.67
56241;BME280;42155;53.096;23.226;2022-07-10T00:27:51;99716.53;;;13.97;73.19
56241;BME280;42155;53.096;23.226;2022-07-10T00:29:51;99730.56;;;13.99;73.22
56241;BME280;42155;53.096;23.226;2022-07-10T00:31:52;99726.38;;;13.96;72.90
56241;BME280;42155;53.096;23.226;2022-07-10T00:33:52;99726.94;;;13.90;72.75
56241;BME280;42155;53.096;23.226;2022-07-10T00:35:53;99732.06;;;13.84;72.96
56241;BME280;42155;53.096;23.226;2022-07-10T00:37:53;99731.50;;;13.80;73.03
56241;BME280;42155;53.096;23.226;2022-07-10T00:39:54;99731.13;;;13.75;73.12
56241;BME280;42155;53.096;23.226;2022-07-10T00:41:54;99714.47;;;13.63;72.80
56241;BME280;42155;53.096;23.226;2022-07-10T00:43:57;99720.53;;;13.65;72.95
56241;BME280;42155;53.096;23.226;2022-07-10T00:45:57;99714.78;;;13.60;73.41
56241;BME280;42155;53.096;23.226;2022-07-10T00:47:58;99688.53;;;13.38;73.47
56241;BME280;42155;53.096;23.226;2022-07-10T00:49:58;99705.19;;;13.40;73.25
56241;BME280;42155;53.096;23.226;2022-07-10T00:52:00;99716.69;;;13.50;73.36
56241;BME280;42155;53.096;23.226;2022-07-10T00:54:02;99720.63;;;13.46;73.54
56241;BME280;42155;53.096;23.226;2022-07-10T00:56:03;99715.75;;;13.41;73.54
56241;BME280;42155;53.096;23.226;2022-07-10T00:58:06;99704.69;;;13.36;73.26
56241;BME280;42155;53.096;23.226;2022-07-10T01:00:08;99702.59;;;13.30;73.42
56241;BME280;42155;53.096;23.226;2022-07-10T01:02:09;99702.06;;;13.27;73.55
56241;BME280;42155;53.096;23.226;2022-07-10T01:04:10;99697.84;;;13.24;73.44
56241;BME280;42155;53.096;23.226;2022-07-10T01:06:10;99696.28;;;13.21;73.42
56241;BME280;42155;53.096;23.226;2022-07-10T01:08:11;99680.22;;;13.13;73.05
56241;BME280;42155;53.096;23.226;2022-07-10T01:10:11;99683.28;;;13.18;73.54
56241;BME280;42155;53.096;23.226;2022-07-10T01:12:12;99682.72;;;13.15;73.42
56241;BME280;42155;53.096;23.226;2022-07-10T01:14:15;99681.16;;;13.12;73.56
56241;BME280;42155;53.096;23.226;2022-07-10T01:16:15;99672.09;;;13.05;73.45
56241;BME280;42155;53.096;23.226;2022-07-10T01:18:17;99669.72;;;13.02;73.96
56241;BME280;42155;53.096;23.226;2022-07-10T01:20:18;99669.00;;;13.10;74.44
56241;BME280;42155;53.096;23.226;2022-07-10T01:22:18;99671.81;;;13.08;74.46
56241;BME280;42155;53.096;23.226;2022-07-10T01:24:19;99672.94;;;13.06;73.86
56241;BME280;42155;53.096;23.226;2022-07-10T01:26:20;99671.09;;;13.06;74.35
56241;BME280;42155;53.096;23.226;2022-07-10T01:28:21;99675.19;;;13.00;74.50
56241;BME280;42155;53.096;23.226;2022-07-10T01:30:21;99671.81;;;12.98;74.70
56241;BME280;42155;53.096;23.226;2022-07-10T01:32:22;99663.16;;;12.96;74.16
56241;BME280;42155;53.096;23.226;2022-07-10T01:34:22;99661.75;;;12.92;74.12
56241;BME280;42155;53.096;23.226;2022-07-10T01:36:23;99672.69;;;12.89;74.32
56241;BME280;42155;53.096;23.226;2022-07-10T01:38:24;99622.50;;;12.57;74.30
56241;BME280;42155;53.096;23.226;2022-07-10T01:40:25;99668.81;;;12.84;73.96
56241;BME280;42155;53.096;23.226;2022-07-10T01:42:25;99670.78;;;12.82;74.34
56241;BME280;42155;53.096;23.226;2022-07-10T01:44:25;99668.00;;;12.73;74.04
56241;BME280;42155;53.096;23.226;2022-07-10T01:46:26;99665.34;;;12.73;73.67
56241;BME280;42155;53.096;23.226;2022-07-10T01:48:26;99657.22;;;12.65;73.97
56241;BME280;42155;53.096;23.226;2022-07-10T01:50:27;99657.63;;;12.70;73.96
56241;BME280;42155;53.096;23.226;2022-07-10T01:52:27;99657.09;;;12.67;74.25
56241;BME280;42155;53.096;23.226;2022-07-10T01:54:28;99665.91;;;12.67;73.93
56241;BME280;42155;53.096;23.226;2022-07-10T01:56:28;99660.19;;;12.62;74.24
56241;BME280;42155;53.096;23.226;2022-07-10T01:58:28;99663.81;;;12.61;74.37
56241;BME280;42155;53.096;23.226;2022-07-10T02:00:29;99658.38;;;12.63;74.17
56241;BME280;42155;53.096;23.226;2022-07-10T02:02:29;99657.38;;;12.64;74.57
56241;BME280;42155;53.096;23.226;2022-07-10T02:04:30;99635.81;;;12.57;74.91
56241;BME280;42155;53.096;23.226;2022-07-10T02:06:30;99604.47;;;12.41;75.11
56241;BME280;42155;53.096;23.226;2022-07-10T02:08:31;99652.03;;;12.73;74.90
56241;BME280;42155;53.096;23.226;2022-07-10T02:10:32;99652.03;;;12.73;75.09
56241;BME280;42155;53.096;23.226;2022-07-10T02:12:32;99645.56;;;12.76;75.22
56241;BME280;42155;53.096;23.226;2022-07-10T02:14:33;99648.09;;;12.78;75.15
56241;BME280;42155;53.096;23.226;2022-07-10T02:16:34;99630.16;;;12.70;74.73
56241;BME280;42155;53.096;23.226;2022-07-10T02:18:34;99660.41;;;12.79;74.89
56241;BME280;42155;53.096;23.226;2022-07-10T02:20:34;99658.72;;;12.78;75.14
56241;BME280;42155;53.096;23.226;2022-07-10T02:22:35;99663.50;;;12.74;75.19
56241;BME280;42155;53.096;23.226;2022-07-10T02:24:35;99663.25;;;12.67;75.65
56241;BME280;42155;53.096;23.226;2022-07-10T02:26:36;99659.47;;;12.60;76.41
56241;BME280;42155;53.096;23.226;2022-07-10T02:28:36;99658.78;;;12.58;75.98
56241;BME280;42155;53.096;23.226;2022-07-10T02:30:36;99655.81;;;12.61;76.17
56241;BME280;42155;53.096;23.226;2022-07-10T02:32:37;99655.38;;;12.66;75.49
56241;BME280;42155;53.096;23.226;2022-07-10T02:34:37;99652.59;;;12.67;75.23
56241;BME280;42155;53.096;23.226;2022-07-10T02:36:38;99657.09;;;12.67;75.65
56241;BME280;42155;53.096;23.226;2022-07-10T02:38:39;99651.91;;;12.65;75.04
56241;BME280;42155;53.096;23.226;2022-07-10T02:40:39;99660.44;;;12.69;75.37
56241;BME280;42155;53.096;23.226;2022-07-10T02:42:40;99654.56;;;12.65;75.20
56241;BME280;42155;53.096;23.226;2022-07-10T02:44:40;99659.31;;;12.71;75.28
56241;BME280;42155;53.096;23.226;2022-07-10T02:46:41;99656.22;;;12.76;75.84
56241;BME280;42155;53.096;23.226;2022-07-10T02:48:41;99652.53;;;12.87;75.50
56241;BME280;42155;53.096;23.226;2022-07-10T02:50:42;99657.00;;;12.96;75.06
56241;BME280;42155;53.096;23.226;2022-07-10T02:52:42;99650.63;;;13.07;75.10
56241;BME280;42155;53.096;23.226;2022-07-10T02:54:42;99634.97;;;13.04;75.40
56241;BME280;42155;53.096;23.226;2022-07-10T02:56:43;99650.97;;;13.21;74.72
56241;BME280;42155;53.096;23.226;2022-07-10T02:58:43;99647.38;;;13.22;74.90
56241;BME280;42155;53.096;23.226;2022-07-10T03:00:43;99648.16;;;13.33;74.83
56241;BME280;42155;53.096;23.226;2022-07-10T03:02:44;99652.06;;;13.38;74.82
56241;BME280;42155;53.096;23.226;2022-07-10T03:04:44;99646.28;;;13.43;74.95
56241;BME280;42155;53.096;23.226;2022-07-10T03:06:45;99651.09;;;13.57;75.36
56241;BME280;42155;53.096;23.226;2022-07-10T03:08:45;99646.00;;;13.64;74.70
56241;BME280;42155;53.096;23.226;2022-07-10T03:10:45;99653.25;;;13.71;74.70
56241;BME280;42155;53.096;23.226;2022-07-10T03:12:46;99652.50;;;13.79;74.67
56241;BME280;42155;53.096;23.226;2022-07-10T03:14:46;99655.09;;;13.89;74.41
56241;BME280;42155;53.096;23.226;2022-07-10T03:16:47;99659.50;;;13.98;74.92
56241;BME280;42155;53.096;23.226;2022-07-10T03:18:47;99660.06;;;14.01;74.56
56241;BME280;42155;53.096;23.226;2022-07-10T03:20:48;99666.75;;;14.06;74.62
56241;BME280;42155;53.096;23.226;2022-07-10T03:22:48;99651.88;;;14.03;74.85
56241;BME280;42155;53.096;23.226;2022-07-10T03:24:49;99661.63;;;14.12;74.85
56241;BME280;42155;53.096;23.226;2022-07-10T03:26:49;99659.03;;;14.20;75.37
56241;BME280;42155;53.096;23.226;2022-07-10T03:28:49;99651.47;;;14.34;75.30
56241;BME280;42155;53.096;23.226;2022-07-10T03:30:50;99646.59;;;14.47;74.98
56241;BME280;42155;53.096;23.226;2022-07-10T03:32:50;99647.19;;;14.59;74.88
56241;BME280;42155;53.096;23.226;2022-07-10T03:34:51;99643.09;;;14.72;74.64
56241;BME280;42155;53.096;23.226;2022-07-10T03:36:51;99645.19;;;14.87;74.32
56241;BME280;42155;53.096;23.226;2022-07-10T03:38:53;99645.69;;;15.24;74.20
56241;BME280;42155;53.096;23.226;2022-07-10T03:40:54;99642.91;;;16.25;71.47
56241;BME280;42155;53.096;23.226;2022-07-10T03:42:54;99631.34;;;16.41;70.60
56241;BME280;42155;53.096;23.226;2022-07-10T03:44:54;99643.75;;;16.42;70.82
56241;BME280;42155;53.096;23.226;2022-07-10T03:46:55;99639.91;;;16.37;70.72
56241;BME280;42155;53.096;23.226;2022-07-10T03:48:55;99636.22;;;16.38;70.45
56241;BME280;42155;53.096;23.226;2022-07-10T03:50:56;99627.88;;;17.44;68.69
56241;BME280;42155;53.096;23.226;2022-07-10T03:52:56;99618.59;;;18.46;65.44
56241;BME280;42155;53.096;23.226;2022-07-10T03:54:56;99619.19;;;18.33;64.91
56241;BME280;42155;53.096;23.226;2022-07-10T03:56:58;99628.88;;;18.20;65.28
56241;BME280;42155;53.096;23.226;2022-07-10T03:58:58;99615.00;;;20.22;61.03
56241;BME280;42155;53.096;23.226;2022-07-10T04:00:58;99609.69;;;22.73;54.82
56241;BME280;42155;53.096;23.226;2022-07-10T04:03:06;99602.47;;;24.83;50.00
56241;BME280;42155;53.096;23.226;2022-07-10T04:05:08;99597.25;;;26.51;46.15
56241;BME280;42155;53.096;23.226;2022-07-10T04:07:09;99591.16;;;27.88;43.56
56241;BME280;42155;53.096;23.226;2022-07-10T04:09:09;99591.94;;;29.06;40.74
56241;BME280;42155;53.096;23.226;2022-07-10T04:11:09;99582.34;;;30.34;38.98
56241;BME280;42155;53.096;23.226;2022-07-10T04:13:10;99585.19;;;31.44;36.08
56241;BME280;42155;53.096;23.226;2022-07-10T04:15:11;99578.72;;;32.42;34.59
56241;BME280;42155;53.096;23.226;2022-07-10T04:17:11;99589.16;;;33.40;32.82
56241;BME280;42155;53.096;23.226;2022-07-10T04:19:12;99583.31;;;34.02;32.14
56241;BME280;42155;53.096;23.226;2022-07-10T04:21:12;99579.38;;;34.71;30.81
56241;BME280;42155;53.096;23.226;2022-07-10T04:23:12;99580.91;;;35.30;29.58
56241;BME280;42155;53.096;23.226;2022-07-10T04:25:13;99575.88;;;35.75;28.63
56241;BME280;42155;53.096;23.226;2022-07-10T04:27:13;99560.56;;;36.34;28.17
56241;BME280;42155;53.096;23.226;2022-07-10T04:29:14;99559.84;;;36.75;27.25
56241;BME280;42155;53.096;23.226;2022-07-10T04:31:14;99559.91;;;37.25;26.75
56241;BME280;42155;53.096;23.226;2022-07-10T04:33:15;99554.56;;;37.79;25.85
56241;BME280;42155;53.096;23.226;2022-07-10T04:35:15;99553.53;;;38.11;25.79
56241;BME280;42155;53.096;23.226;2022-07-10T04:37:16;99557.44;;;38.32;24.86
56241;BME280;42155;53.096;23.226;2022-07-10T04:39:16;99556.59;;;38.63;25.13
56241;BME280;42155;53.096;23.226;2022-07-10T04:41:17;99547.41;;;38.54;24.57
56241;BME280;42155;53.096;23.226;2022-07-10T04:43:17;99556.47;;;39.08;24.50
56241;BME280;42155;53.096;23.226;2022-07-10T04:45:18;99548.75;;;38.96;24.23
56241;BME280;42155;53.096;23.226;2022-07-10T04:47:18;99547.50;;;38.71;24.42
56241;BME280;42155;53.096;23.226;2022-07-10T04:49:19;99552.78;;;36.96;26.44
56241;BME280;42155;53.096;23.226;2022-07-10T04:51:19;99554.69;;;34.61;28.81
56241;BME280;42155;53.096;23.226;2022-07-10T04:53:19;99543.28;;;32.30;31.41
56241;BME280;42155;53.096;23.226;2022-07-10T04:55:20;99558.03;;;30.42;33.89
56241;BME280;42155;53.096;23.226;2022-07-10T04:57:20;99557.50;;;28.88;36.32
56241;BME280;42155;53.096;23.226;2022-07-10T04:59:21;99556.03;;;27.63;38.11
56241;BME280;42155;53.096;23.226;2022-07-10T05:01:21;99567.47;;;26.44;40.52
56241;BME280;42155;53.096;23.226;2022-07-10T05:03:22;99559.16;;;25.55;41.85
56241;BME280;42155;53.096;23.226;2022-07-10T05:05:22;99562.44;;;25.16;42.77
56241;BME280;42155;53.096;23.226;2022-07-10T05:07:22;99559.91;;;25.62;43.24
56241;BME280;42155;53.096;23.226;2022-07-10T05:09:23;99559.97;;;26.39;42.09
56241;BME280;42155;53.096;23.226;2022-07-10T05:11:23;99554.53;;;26.39;41.58
56241;BME280;42155;53.096;23.226;2022-07-10T05:13:24;99553.25;;;25.77;42.07
56241;BME280;42155;53.096;23.226;2022-07-10T05:15:24;99557.06;;;24.90;43.14
56241;BME280;42155;53.096;23.226;2022-07-10T05:17:25;99559.63;;;24.17;44.94
56241;BME280;42155;53.096;23.226;2022-07-10T05:19:25;99564.63;;;23.95;45.00
56241;BME280;42155;53.096;23.226;2022-07-10T05:21:26;99565.84;;;23.68;45.96
56241;BME280;42155;53.096;23.226;2022-07-10T05:23:26;99562.50;;;23.27;46.49
56241;BME280;42155;53.096;23.226;2022-07-10T05:25:27;99556.63;;;22.79;46.96
56241;BME280;42155;53.096;23.226;2022-07-10T05:27:27;99553.16;;;22.39;48.00
56241;BME280;42155;53.096;23.226;2022-07-10T05:29:27;99562.47;;;22.69;47.91
56241;BME280;42155;53.096;23.226;2022-07-10T05:31:28;99559.44;;;23.17;47.16
56241;BME280;42155;53.096;23.226;2022-07-10T05:33:28;99547.78;;;23.55;45.86
56241;BME280;42155;53.096;23.226;2022-07-10T05:35:29;99555.03;;;23.93;46.05
56241;BME280;42155;53.096;23.226;2022-07-10T05:37:29;99552.47;;;24.04;45.77
56241;BME280;42155;53.096;23.226;2022-07-10T05:39:30;99546.63;;;24.26;45.57
56241;BME280;42155;53.096;23.226;2022-07-10T05:41:30;99549.06;;;24.59;45.12
56241;BME280;42155;53.096;23.226;2022-07-10T05:43:31;99549.13;;;24.71;44.42
56241;BME280;42155;53.096;23.226;2022-07-10T05:45:31;99549.69;;;24.79;44.09
56241;BME280;42155;53.096;23.226;2022-07-10T05:47:32;99543.47;;;24.90;43.90
56241;BME280;42155;53.096;23.226;2022-07-10T05:49:32;99542.59;;;24.78;44.31
56241;BME280;42155;53.096;23.226;2022-07-10T05:51:33;99548.03;;;24.78;44.54
56241;BME280;42155;53.096;23.226;2022-07-10T05:53:33;99549.06;;;24.96;44.17
56241;BME280;42155;53.096;23.226;2022-07-10T05:55:34;99544.25;;;25.16;43.21
56241;BME280;42155;53.096;23.226;2022-07-10T05:57:35;99539.75;;;25.10;43.45
56241;BME280;42155;53.096;23.226;2022-07-10T05:59:35;99536.25;;;25.03;42.89
56241;BME280;42155;53.096;23.226;2022-07-10T06:01:36;99533.25;;;24.93;43.94
56241;BME280;42155;53.096;23.226;2022-07-10T06:03:36;99541.66;;;25.03;44.05
56241;BME280;42155;53.096;23.226;2022-07-10T06:05:37;99549.53;;;25.11;44.04
56241;BME280;42155;53.096;23.226;2022-07-10T06:07:38;99534.53;;;25.08;43.67
56241;BME280;42155;53.096;23.226;2022-07-10T06:09:38;99544.91;;;25.30;43.57
56241;BME280;42155;53.096;23.226;2022-07-10T06:11:38;99537.72;;;25.35;43.80
56241;BME280;42155;53.096;23.226;2022-07-10T06:13:39;99540.47;;;25.17;43.01
56241;BME280;42155;53.096;23.226;2022-07-10T06:15:42;99536.53;;;25.31;43.09
56241;BME280;42155;53.096;23.226;2022-07-10T06:17:43;99548.03;;;24.97;42.88
56241;BME280;42155;53.096;23.226;2022-07-10T06:19:43;99552.19;;;24.37;44.77
56241;BME280;42155;53.096;23.226;2022-07-10T06:21:44;99545.22;;;24.23;45.22
56241;BME280;42155;53.096;23.226;2022-07-10T06:23:45;99560.25;;;24.19;45.34
56241;BME280;42155;53.096;23.226;2022-07-10T06:25:45;99548.31;;;24.52;44.97
56241;BME280;42155;53.096;23.226;2022-07-10T06:27:45;99554.47;;;24.77;44.05
56241;BME280;42155;53.096;23.226;2022-07-10T06:29:46;99539.56;;;24.86;43.71
56241;BME280;42155;53.096;23.226;2022-07-10T06:31:46;99536.25;;;25.21;43.20
56241;BME280;42155;53.096;23.226;2022-07-10T06:33:46;99541.50;;;25.34;42.15
56241;BME280;42155;53.096;23.226;2022-07-10T06:35:47;99544.38;;;25.03;42.14
56241;BME280;42155;53.096;23.226;2022-07-10T06:37:47;99543.19;;;24.62;41.90
56241;BME280;42155;53.096;23.226;2022-07-10T06:39:48;99543.19;;;24.62;42.20
56241;BME280;42155;53.096;23.226;2022-07-10T06:41:49;99542.94;;;24.45;42.65
56241;BME280;42155;53.096;23.226;2022-07-10T06:43:49;99536.84;;;24.25;43.08
56241;BME280;42155;53.096;23.226;2022-07-10T06:45:50;99547.03;;;24.54;42.88
56241;BME280;42155;53.096;23.226;2022-07-10T06:47:51;99543.34;;;24.85;43.09
56241;BME280;42155;53.096;23.226;2022-07-10T06:49:51;99537.16;;;25.15;42.27
56241;BME280;42155;53.096;23.226;2022-07-10T06:51:52;99543.97;;;25.36;42.31
56241;BME280;42155;53.096;23.226;2022-07-10T06:53:52;99532.47;;;25.52;41.18
56241;BME280;42155;53.096;23.226;2022-07-10T06:55:53;99543.91;;;25.43;41.34
56241;BME280;42155;53.096;23.226;2022-07-10T06:57:54;99534.56;;;25.50;40.71
56241;BME280;42155;53.096;23.226;2022-07-10T06:59:55;99529.28;;;25.55;39.77
56241;BME280;42155;53.096;23.226;2022-07-10T07:01:55;99533.06;;;25.54;40.08
56241;BME280;42155;53.096;23.226;2022-07-10T07:03:56;99541.22;;;25.24;40.67
56241;BME280;42155;53.096;23.226;2022-07-10T07:05:56;99529.59;;;25.17;41.05
56241;BME280;42155;53.096;23.226;2022-07-10T07:07:57;99517.50;;;24.83;40.96
56241;BME280;42155;53.096;23.226;2022-07-10T07:09:57;99535.31;;;24.10;42.15
56241;BME280;42155;53.096;23.226;2022-07-10T07:11:58;99532.16;;;23.50;43.29
56241;BME280;42155;53.096;23.226;2022-07-10T07:13:58;99538.75;;;23.29;44.32
56241;BME280;42155;53.096;23.226;2022-07-10T07:15:58;99536.81;;;22.92;43.33
56241;BME280;42155;53.096;23.226;2022-07-10T07:17:59;99538.06;;;22.82;43.49
56241;BME280;42155;53.096;23.226;2022-07-10T07:20:00;99535.94;;;23.11;43.31
56241;BME280;42155;53.096;23.226;2022-07-10T07:22:01;99532.31;;;23.62;42.94
56241;BME280;42155;53.096;23.226;2022-07-10T07:24:02;99523.63;;;24.10;40.98
56241;BME280;42155;53.096;23.226;2022-07-10T07:26:02;99523.19;;;24.13;40.53
56241;BME280;42155;53.096;23.226;2022-07-10T07:28:03;99518.66;;;24.07;40.13
56241;BME280;42155;53.096;23.226;2022-07-10T07:30:09;99529.88;;;24.10;40.47
56241;BME280;42155;53.096;23.226;2022-07-10T07:32:10;99526.78;;;24.07;41.67
56241;BME280;42155;53.096;23.226;2022-07-10T07:34:11;99521.47;;;24.19;40.72
56241;BME280;42155;53.096;23.226;2022-07-10T07:36:11;99526.50;;;24.15;40.93
56241;BME280;42155;53.096;23.226;2022-07-10T07:38:11;99524.84;;;24.14;40.07
56241;BME280;42155;53.096;23.226;2022-07-10T07:40:15;99532.72;;;24.22;39.35
56241;BME280;42155;53.096;23.226;2022-07-10T07:42:16;99526.66;;;24.20;39.81
56241;BME280;42155;53.096;23.226;2022-07-10T07:44:16;99533.38;;;24.43;38.65
56241;BME280;42155;53.096;23.226;2022-07-10T07:46:17;99529.75;;;24.67;37.90
56241;BME280;42155;53.096;23.226;2022-07-10T07:48:17;99491.31;;;24.52;38.06
56241;BME280;42155;53.096;23.226;2022-07-10T07:50:19;99519.97;;;24.84;39.45
56241;BME280;42155;53.096;23.226;2022-07-10T07:52:20;99521.22;;;24.82;39.11
56241;BME280;42155;53.096;23.226;2022-07-10T07:54:20;99534.13;;;24.68;38.27
56241;BME280;42155;53.096;23.226;2022-07-10T07:56:21;99538.84;;;24.36;38.85
56241;BME280;42155;53.096;23.226;2022-07-10T07:58:21;99513.31;;;23.94;39.14
56241;BME280;42155;53.096;23.226;2022-07-10T08:00:26;99533.97;;;23.63;39.28
56241;BME280;42155;53.096;23.226;2022-07-10T08:02:27;99537.66;;;22.99;39.86
56241;BME280;42155;53.096;23.226;2022-07-10T08:04:27;99536.75;;;22.20;40.83
56241;BME280;42155;53.096;23.226;2022-07-10T08:06:27;99541.09;;;22.08;42.37
56241;BME280;42155;53.096;23.226;2022-07-10T08:08:28;99548.81;;;22.38;42.95
56241;BME280;42155;53.096;23.226;2022-07-10T08:10:28;99554.34;;;22.69;42.88
56241;BME280;42155;53.096;23.226;2022-07-10T08:12:29;99546.38;;;23.01;42.40
56241;BME280;42155;53.096;23.226;2022-07-10T08:14:29;99554.31;;;22.96;42.14
56241;BME280;42155;53.096;23.226;2022-07-10T08:16:30;99548.88;;;22.96;41.45
56241;BME280;42155;53.096;23.226;2022-07-10T08:18:30;99553.38;;;23.15;41.25
56241;BME280;42155;53.096;23.226;2022-07-10T08:20:30;99542.94;;;23.25;41.17
56241;BME280;42155;53.096;23.226;2022-07-10T08:22:32;99546.84;;;23.29;40.38
56241;BME280;42155;53.096;23.226;2022-07-10T08:24:32;99539.63;;;23.23;40.59
56241;BME280;42155;53.096;23.226;2022-07-10T08:26:33;99547.50;;;23.31;40.96
56241;BME280;42155;53.096;23.226;2022-07-10T08:28:33;99534.38;;;23.28;41.01
56241;BME280;42155;53.096;23.226;2022-07-10T08:30:34;99553.91;;;23.44;40.37
56241;BME280;42155;53.096;23.226;2022-07-10T08:32:35;99549.56;;;23.29;40.43
56241;BME280;42155;53.096;23.226;2022-07-10T08:34:36;99556.72;;;23.17;40.62
56241;BME280;42155;53.096;23.226;2022-07-10T08:36:37;99541.25;;;23.24;40.78
56241;BME280;42155;53.096;23.226;2022-07-10T08:38:37;99546.97;;;23.48;40.61
56241;BME280;42155;53.096;23.226;2022-07-10T08:40:38;99537.31;;;23.65;40.71
56241;BME280;42155;53.096;23.226;2022-07-10T08:42:40;99540.81;;;23.97;40.50
56241;BME280;42155;53.096;23.226;2022-07-10T08:44:41;99542.25;;;24.25;40.88
56241;BME280;42155;53.096;23.226;2022-07-10T08:46:42;99539.41;;;24.20;39.18
56241;BME280;42155;53.096;23.226;2022-07-10T08:48:46;99542.22;;;23.81;39.39
56241;BME280;42155;53.096;23.226;2022-07-10T08:50:48;99546.06;;;23.60;39.98
56241;BME280;42155;53.096;23.226;2022-07-10T08:53:20;99530.69;;;23.54;40.21
56241;BME280;42155;53.096;23.226;2022-07-10T08:55:25;99538.41;;;23.51;41.13
56241;BME280;42155;53.096;23.226;2022-07-10T08:57:26;99539.22;;;23.58;40.37
56241;BME280;42155;53.096;23.226;2022-07-10T08:59:28;99537.50;;;23.63;40.48
56241;BME280;42155;53.096;23.226;2022-07-10T09:01:28;99520.84;;;23.60;40.19
56241;BME280;42155;53.096;23.226;2022-07-10T09:03:30;99529.63;;;23.55;41.28
56241;BME280;42155;53.096;23.226;2022-07-10T09:05:30;99526.81;;;23.75;40.82
56241;BME280;42155;53.096;23.226;2022-07-10T09:07:37;99521.38;;;23.82;41.23
56241;BME280;42155;53.096;23.226;2022-07-10T09:09:56;99521.63;;;23.74;39.73
56241;BME280;42155;53.096;23.226;2022-07-10T09:11:58;99518.75;;;23.30;40.06
56241;BME280;42155;53.096;23.226;2022-07-10T09:14:01;99529.31;;;23.00;40.23
56241;BME280;42155;53.096;23.226;2022-07-10T09:16:02;99524.19;;;22.72;40.47
56241;BME280;42155;53.096;23.226;2022-07-10T09:18:04;99519.25;;;22.56;41.80
56241;BME280;42155;53.096;23.226;2022-07-10T09:20:05;99529.63;;;22.59;42.19
56241;BME280;42155;53.096;23.226;2022-07-10T09:22:07;99525.19;;;22.84;42.41
56241;BME280;42155;53.096;23.226;2022-07-10T09:24:08;99530.53;;;23.11;41.97
56241;BME280;42155;53.096;23.226;2022-07-10T09:26:09;99518.78;;;23.24;40.94
56241;BME280;42155;53.096;23.226;2022-07-10T09:28:09;99492.66;;;23.04;40.96
56241;BME280;42155;53.096;23.226;2022-07-10T09:30:09;99511.34;;;23.12;41.53
56241;BME280;42155;53.096;23.226;2022-07-10T09:32:10;99515.47;;;23.22;42.16
56241;BME280;42155;53.096;23.226;2022-07-10T09:34:11;99513.47;;;23.42;40.74
56241;BME280;42155;53.096;23.226;2022-07-10T09:36:12;99511.56;;;23.49;40.07
56241;BME280;42155;53.096;23.226;2022-07-10T09:38:12;99487.03;;;23.37;40.17
56241;BME280;42155;53.096;23.226;2022-07-10T09:40:12;99504.09;;;23.45;40.11
56241;BME280;42155;53.096;23.226;2022-07-10T09:42:33;99483.47;;;23.12;40.56
56241;BME280;42155;53.096;23.226;2022-07-10T09:44:34;99504.31;;;23.05;40.91
56241;BME280;42155;53.096;23.226;2022-07-10T09:46:36;99514.38;;;22.84;40.72
56241;BME280;42155;53.096;23.226;2022-07-10T09:48:37;99510.66;;;22.72;41.45
56241;BME280;42155;53.096;23.226;2022-07-10T09:50:37;99508.59;;;22.68;42.37
56241;BME280;42155;53.096;23.226;2022-07-10T09:52:38;99512.78;;;22.57;42.69
56241;BME280;42155;53.096;23.226;2022-07-10T09:54:39;99499.47;;;22.49;42.75
56241;BME280;42155;53.096;23.226;2022-07-10T09:56:43;99499.44;;;22.55;42.56
56241;BME280;42155;53.096;23.226;2022-07-10T09:58:45;99498.94;;;22.85;43.00
56241;BME280;42155;53.096;23.226;2022-07-10T10:00:47;99489.06;;;23.10;42.60
56241;BME280;42155;53.096;23.226;2022-07-10T10:02:49;99498.00;;;23.18;42.17
56241;BME280;42155;53.096;23.226;2022-07-10T10:04:50;99497.78;;;23.19;42.04
56241;BME280;42155;53.096;23.226;2022-07-10T10:06:53;99489.88;;;23.18;41.54
56241;BME280;42155;53.096;23.226;2022-07-10T10:08:59;99490.06;;;23.23;41.28
56241;BME280;42155;53.096;23.226;2022-07-10T10:11:04;99499.53;;;23.38;41.82
56241;BME280;42155;53.096;23.226;2022-07-10T10:13:10;99492.91;;;23.34;41.08
56241;BME280;42155;53.096;23.226;2022-07-10T10:15:11;99501.34;;;23.13;41.25
56241;BME280;42155;53.096;23.226;2022-07-10T10:17:12;99487.41;;;23.09;41.74
56241;BME280;42155;53.096;23.226;2022-07-10T10:19:14;99496.28;;;23.23;41.46
56241;BME280;42155;53.096;23.226;2022-07-10T10:21:14;99484.28;;;23.12;41.29
56241;BME280;42155;53.096;23.226;2022-07-10T10:23:16;99487.28;;;22.98;41.79
56241;BME280;42155;53.096;23.226;2022-07-10T10:25:18;99486.25;;;22.92;42.27
56241;BME280;42155;53.096;23.226;2022-07-10T10:27:20;99494.16;;;22.94;41.50
56241;BME280;42155;53.096;23.226;2022-07-10T10:29:21;99484.72;;;23.09;42.70
56241;BME280;42155;53.096;23.226;2022-07-10T10:31:21;99468.63;;;23.21;42.49
56241;BME280;42155;53.096;23.226;2022-07-10T10:35:42;99476.44;;;23.36;42.51